Frankfurt / M-Flughafen, Germany (EDDF) 50-03N 008-36E 113M
Sep 23, 2019 - 01:20 PM EDT / 2019.09.23 1720 UTC
Wind: from the SW (220 degrees) at 9 MPH (8 KT):0
Visibility: greater than 7 mile(s):0
Sky conditions: mostly clear
Temperature: 64 F (18 C)
Dew Point: 51 F (11 C)
Relative Humidity: 63%
Pressure (altimeter): 30.00 in. Hg (1016 hPa)
ob: EDDF 231720Z 22008KT 9999 FEW040 18/11 Q1016 NOSIG
cycle: 17